createdAt,value
2023-03-12T00:01:59.714Z,100278.09
2023-03-12T00:04:26.845Z,100278.69
2023-03-12T00:06:53.913Z,100279.72
2023-03-12T00:09:20.497Z,100269.31
2023-03-12T00:11:47.170Z,100266.25
2023-03-12T00:14:13.760Z,100263.72
2023-03-12T00:16:40.604Z,100271.25
2023-03-12T00:19:07.214Z,100277.81
2023-03-12T00:21:33.845Z,100262.25
2023-03-12T00:24:00.401Z,100270.16
2023-03-12T00:26:26.969Z,100280.16
2023-03-12T00:28:53.841Z,100282.22
2023-03-12T00:31:24.117Z,100274.91
2023-03-12T00:33:50.776Z,100285.69
2023-03-12T00:36:19.588Z,100278.72
2023-03-12T00:38:46.186Z,100278.41
2023-03-12T00:41:13.069Z,100287.81
2023-03-12T00:43:39.713Z,100288.13
2023-03-12T00:46:06.331Z,100275.97
2023-03-12T00:48:32.968Z,100281.50
2023-03-12T00:50:59.587Z,100279.63
2023-03-12T00:53:26.312Z,100271.25
2023-03-12T00:55:52.929Z,100277.28
2023-03-12T00:58:19.516Z,100273.94
2023-03-12T01:00:46.182Z,100262.28
2023-03-12T01:03:13.381Z,100260.06
2023-03-12T01:05:40.791Z,100255.38
2023-03-12T01:08:08.841Z,100260.53
2023-03-12T01:10:37.107Z,100260.09
2023-03-12T01:13:03.720Z,100266.44
2023-03-12T01:15:30.298Z,100270.81
2023-03-12T01:17:56.977Z,100263.63
2023-03-12T01:20:23.829Z,100267.91
2023-03-12T01:22:51.233Z,100257.38
2023-03-12T01:25:18.250Z,100266.69
2023-03-12T01:27:45.251Z,100271.34
2023-03-12T01:30:12.655Z,100269.53
2023-03-12T01:32:39.245Z,100261.97
2023-03-12T01:35:06.883Z,100273.41
2023-03-12T01:37:33.913Z,100273.41
2023-03-12T01:40:00.807Z,100269.59
2023-03-12T01:42:27.402Z,100270.34
2023-03-12T01:44:57.227Z,100267.69
2023-03-12T01:47:25.102Z,100266.94
2023-03-12T01:49:54.249Z,100269.81
2023-03-12T01:52:30.718Z,100265.59
2023-03-12T01:55:14.867Z,100263.50
2023-03-12T01:57:48.307Z,100253.28
2023-03-12T02:00:24.132Z,100259.06
2023-03-12T02:02:52.288Z,100247.19
2023-03-12T02:05:34.257Z,100246.47
2023-03-12T02:08:00.893Z,100247.13
2023-03-12T02:10:27.575Z,100243.53
2023-03-12T02:12:54.290Z,100235.97
2023-03-12T02:15:21.063Z,100231.69
2023-03-12T02:17:47.633Z,100239.63
2023-03-12T02:20:22.424Z,100236.44
2023-03-12T02:23:04.065Z,100244.06
2023-03-12T02:25:38.494Z,100241.53
2023-03-12T02:28:08.746Z,100232.69
2023-03-12T02:30:36.695Z,100232.13
2023-03-12T02:33:07.402Z,100238.16
2023-03-12T02:35:35.053Z,100246.16
2023-03-12T02:38:02.163Z,100244.38
2023-03-12T02:40:37.582Z,100253.66
2023-03-12T02:43:06.741Z,100245.16
2023-03-12T02:45:35.603Z,100250.78
2023-03-12T02:48:03.064Z,100250.78
2023-03-12T02:50:29.665Z,100244.59
2023-03-12T02:52:56.255Z,100230.94
2023-03-12T02:55:22.837Z,100235.50
2023-03-12T02:57:49.419Z,100223.69
2023-03-12T03:00:16.806Z,100222.25
2023-03-12T03:02:43.649Z,100219.13
2023-03-12T03:05:12.043Z,100220.22
2023-03-12T03:07:39.036Z,100220.56
2023-03-12T03:10:06.660Z,100215.88
2023-03-12T03:12:34.884Z,100214.19
2023-03-12T03:15:01.670Z,100203.94
2023-03-12T03:17:28.653Z,100207.72
2023-03-12T03:19:55.358Z,100216.03
2023-03-12T03:22:22.785Z,100204.28
2023-03-12T03:24:49.865Z,100206.44
2023-03-12T03:27:16.438Z,100204.72
2023-03-12T03:29:45.084Z,100207.81
2023-03-12T03:32:11.921Z,100203.53
2023-03-12T03:34:39.149Z,100197.13
2023-03-12T03:37:05.814Z,100197.94
2023-03-12T03:39:32.841Z,100203.50
2023-03-12T03:41:59.369Z,100194.81
2023-03-12T03:44:25.994Z,100203.28
2023-03-12T03:46:53.482Z,100204.44
2023-03-12T03:49:20.262Z,100207.03
2023-03-12T03:51:47.128Z,100197.97
2023-03-12T03:54:13.704Z,100194.09
2023-03-12T03:56:41.178Z,100196.53
2023-03-12T03:59:07.789Z,100193.88
2023-03-12T04:01:34.751Z,100201.81
2023-03-12T04:04:01.388Z,100205.25
2023-03-12T04:06:29.761Z,100202.19
2023-03-12T04:08:57.909Z,100195.19
2023-03-12T04:11:26.137Z,100198.19
2023-03-12T04:13:52.916Z,100198.41
2023-03-12T04:16:19.588Z,100199.28
2023-03-12T04:18:46.178Z,100198.28
2023-03-12T04:21:13.902Z,100194.09
2023-03-12T04:23:41.092Z,100190.81
2023-03-12T04:26:07.926Z,100193.38
2023-03-12T04:28:35.458Z,100199.91
2023-03-12T04:31:04.998Z,100204.41
2023-03-12T04:33:35.477Z,100217.03
2023-03-12T04:36:02.222Z,100215.25
2023-03-12T04:38:28.818Z,100210.50
2023-03-12T04:41:14.913Z,100213.91
2023-03-12T04:43:41.989Z,100214.78
2023-03-12T04:46:09.365Z,100221.47
2023-03-12T04:48:36.539Z,100211.16
2023-03-12T04:51:04.511Z,100209.00
2023-03-12T04:53:31.217Z,100223.25
2023-03-12T04:55:57.916Z,100218.47
2023-03-12T04:58:24.489Z,100211.81
2023-03-12T05:00:51.349Z,100203.00
2023-03-12T05:03:18.420Z,100206.09
2023-03-12T05:05:45.542Z,100207.94
2023-03-12T05:08:12.150Z,100209.00
2023-03-12T05:10:38.767Z,100209.63
2023-03-12T05:13:13.653Z,100205.47
2023-03-12T05:15:40.200Z,100186.50
2023-03-12T05:18:06.736Z,100188.97
2023-03-12T05:20:35.325Z,100180.00
2023-03-12T05:23:01.894Z,100175.84
2023-03-12T05:25:28.409Z,100162.72
2023-03-12T05:27:56.115Z,100161.94
2023-03-12T05:30:22.719Z,100159.34
2023-03-12T05:32:49.325Z,100162.72
2023-03-12T05:35:15.932Z,100155.25
2023-03-12T05:37:42.887Z,100158.53
2023-03-12T05:40:13.067Z,100154.16
2023-03-12T05:42:39.722Z,100165.41
2023-03-12T05:45:07.096Z,100159.13
2023-03-12T05:47:33.681Z,100162.72
2023-03-12T05:50:00.233Z,100161.94
2023-03-12T05:52:26.878Z,100169.50
2023-03-12T05:54:53.620Z,100160.16
2023-03-12T05:57:20.296Z,100163.84
2023-03-12T05:59:46.863Z,100152.78
2023-03-12T06:02:13.475Z,100164.75
2023-03-12T06:04:39.993Z,100150.00
2023-03-12T06:07:06.739Z,100148.97
2023-03-12T06:09:33.268Z,100149.44
2023-03-12T06:11:59.857Z,100141.88
2023-03-12T06:14:26.457Z,100140.63
2023-03-12T06:16:53.101Z,100139.22
2023-03-12T06:19:19.721Z,100147.88
2023-03-12T06:21:46.254Z,100150.03
2023-03-12T06:24:12.920Z,100146.31
2023-03-12T06:26:40.497Z,100144.75
2023-03-12T06:29:07.262Z,100139.69
2023-03-12T06:31:34.976Z,100145.69
2023-03-12T06:34:03.333Z,100151.34
2023-03-12T06:36:29.918Z,100153.91
2023-03-12T06:38:57.334Z,100149.47
2023-03-12T06:41:24.046Z,100157.31
2023-03-12T06:43:50.870Z,100156.09
2023-03-12T06:46:21.622Z,100151.91
2023-03-12T06:48:48.779Z,100155.91
2023-03-12T06:51:16.452Z,100154.53
2023-03-12T06:53:43.309Z,100159.31
2023-03-12T06:56:10.680Z,100156.41
2023-03-12T06:58:37.397Z,100144.34
2023-03-12T07:01:04.636Z,100153.94
2023-03-12T07:03:31.450Z,100154.06
2023-03-12T07:05:58.535Z,100151.94
2023-03-12T07:08:26.108Z,100157.72
2023-03-12T07:10:52.598Z,100155.94
2023-03-12T07:13:19.192Z,100150.47
2023-03-12T07:15:46.501Z,100159.69
2023-03-12T07:18:13.351Z,100154.53
2023-03-12T07:20:42.719Z,100143.88
2023-03-12T07:23:10.055Z,100148.97
2023-03-12T07:25:41.539Z,100155.25
2023-03-12T07:28:09.299Z,100147.75
2023-03-12T07:30:36.407Z,100155.00
2023-03-12T07:33:08.200Z,100145.47
2023-03-12T07:35:35.533Z,100156.63
2023-03-12T07:38:02.942Z,100156.31
2023-03-12T07:40:29.551Z,100146.47
2023-03-12T07:42:56.867Z,100143.72
2023-03-12T07:45:24.273Z,100143.47
2023-03-12T07:47:51.701Z,100128.72
2023-03-12T07:50:19.330Z,100140.47
2023-03-12T07:52:46.898Z,100134.56
2023-03-12T07:55:13.807Z,100142.66
2023-03-12T07:57:40.474Z,100131.25
2023-03-12T08:00:08.810Z,100137.47
2023-03-12T08:02:36.150Z,100141.75
2023-03-12T08:05:03.057Z,100139.16
2023-03-12T08:07:32.432Z,100131.81
2023-03-12T08:09:59.934Z,100129.22
2023-03-12T08:12:27.086Z,100129.63
2023-03-12T08:14:54.772Z,100131.69
2023-03-12T08:17:21.839Z,100133.06
2023-03-12T08:19:48.452Z,100141.31
2023-03-12T08:22:14.984Z,100133.97
2023-03-12T08:24:41.906Z,100139.00
2023-03-12T08:27:08.762Z,100136.41
2023-03-12T08:29:35.360Z,100137.72
2023-03-12T08:32:05.207Z,100146.09
2023-03-12T08:34:33.929Z,100153.63
2023-03-12T08:37:01.045Z,100150.81
2023-03-12T08:39:28.612Z,100155.94
2023-03-12T08:41:55.499Z,100163.44
2023-03-12T08:44:26.143Z,100154.00
2023-03-12T08:46:53.064Z,100147.56
2023-03-12T08:49:20.984Z,100149.41
2023-03-12T08:51:47.937Z,100144.91
2023-03-12T08:54:14.926Z,100138.50
2023-03-12T08:56:44.583Z,100136.22
2023-03-12T08:59:11.721Z,100137.41
2023-03-12T09:01:38.685Z,100127.59
2023-03-12T09:04:06.252Z,100134.28
2023-03-12T09:06:35.236Z,100129.78
2023-03-12T09:09:05.450Z,100138.28
2023-03-12T09:11:33.777Z,100134.47
2023-03-12T09:16:48.351Z,100153.94
2023-03-12T09:19:15.108Z,100143.72
2023-03-12T09:21:44.113Z,100146.50
2023-03-12T09:24:11.610Z,100140.56
2023-03-12T09:26:38.103Z,100146.63
2023-03-12T09:29:04.780Z,100147.75
2023-03-12T09:31:31.437Z,100148.63
2023-03-12T09:33:57.954Z,100151.34
2023-03-12T09:36:24.514Z,100147.59
2023-03-12T09:38:51.011Z,100142.47
2023-03-12T09:41:27.669Z,100134.38
2023-03-12T09:44:03.076Z,100139.50
2023-03-12T09:46:36.921Z,100124.25
2023-03-12T09:49:10.665Z,100132.97
2023-03-12T09:51:47.170Z,100128.00
2023-03-12T09:54:29.734Z,100130.44
2023-03-12T09:57:05.290Z,100151.03
2023-03-12T09:59:32.344Z,100136.16
2023-03-12T10:02:02.803Z,100136.75
2023-03-12T10:04:56.626Z,100127.75
2023-03-12T10:07:34.050Z,100125.56
2023-03-12T10:10:17.094Z,100138.06
2023-03-12T10:12:59.070Z,100139.03
2023-03-12T10:15:45.261Z,100145.81
2023-03-12T10:18:27.537Z,100141.25
2023-03-12T10:21:35.151Z,100139.53
2023-03-12T10:24:16.392Z,100151.66
2023-03-12T10:26:45.692Z,100153.28
2023-03-12T10:29:45.510Z,100151.22
2023-03-12T10:32:12.085Z,100150.56
2023-03-12T10:34:54.307Z,100151.94
2023-03-12T10:37:44.107Z,100148.38
2023-03-12T10:40:22.447Z,100139.94
2023-03-12T10:42:49.619Z,100139.84
2023-03-12T10:45:46.639Z,100142.09
2023-03-12T10:48:21.693Z,100132.53
2023-03-12T10:51:07.014Z,100142.91
2023-03-12T10:53:41.281Z,100116.28
2023-03-12T10:56:10.615Z,100119.84
2023-03-12T10:59:01.549Z,100111.41
2023-03-12T11:01:32.640Z,100102.88
2023-03-12T11:04:16.531Z,100117.91
2023-03-12T11:06:43.629Z,100115.78
2023-03-12T11:09:17.282Z,100113.88
2023-03-12T11:11:48.566Z,100122.53
2023-03-12T11:14:26.901Z,100119.91
2023-03-12T11:16:54.945Z,100124.06
2023-03-12T11:19:40.622Z,100126.66
2023-03-12T11:22:13.815Z,100126.81
2023-03-12T11:24:56.813Z,100124.50
2023-03-12T11:27:38.595Z,100121.44
2023-03-12T11:30:09.924Z,100118.03
2023-03-12T11:32:40.992Z,100118.47
2023-03-12T11:35:12.542Z,100122.84
2023-03-12T11:37:56.305Z,100115.59
2023-03-12T11:40:38.085Z,100131.22
2023-03-12T11:43:39.986Z,100126.09
2023-03-12T11:46:59.094Z,100115.47
2023-03-12T11:49:58.573Z,100123.28
2023-03-12T11:52:52.949Z,100125.19
2023-03-12T11:55:43.969Z,100124.25
2023-03-12T11:58:22.411Z,100120.72
2023-03-12T12:01:05.812Z,100108.66
2023-03-12T12:03:51.812Z,100106.91
2023-03-12T12:06:36.864Z,100097.13
2023-03-12T12:09:26.230Z,100102.88
2023-03-12T12:12:16.842Z,100099.28
2023-03-12T12:15:31.465Z,100095.00
2023-03-12T12:18:21.201Z,100093.41
2023-03-12T12:21:01.308Z,100094.00
2023-03-12T12:23:33.825Z,100087.88
2023-03-12T12:26:13.214Z,100080.31
2023-03-12T12:29:17.401Z,100068.06
2023-03-12T12:32:15.295Z,100077.69
2023-03-12T12:35:09.330Z,100064.16
2023-03-12T12:37:54.388Z,100056.63
2023-03-12T12:40:41.453Z,100052.00
2023-03-12T12:43:23.929Z,100040.19
2023-03-12T12:45:52.898Z,100057.66
2023-03-12T12:48:32.122Z,100048.13
2023-03-12T12:51:00.874Z,100058.66
2023-03-12T12:53:37.612Z,100041.13
2023-03-12T12:56:23.017Z,100041.00
2023-03-12T12:59:10.881Z,100033.97
2023-03-12T13:01:38.368Z,100031.31
2023-03-12T13:04:24.883Z,100050.34
2023-03-12T13:06:57.857Z,100055.66
2023-03-12T13:09:36.983Z,100060.44
2023-03-12T13:12:11.769Z,100057.34
2023-03-12T13:14:41.729Z,100052.88
2023-03-12T13:17:21.408Z,100052.03
2023-03-12T13:19:55.541Z,100048.19
2023-03-12T13:23:17.128Z,100036.91
2023-03-12T13:25:57.145Z,100036.16
2023-03-12T13:28:30.066Z,100037.22
2023-03-12T13:30:58.541Z,100029.09
2023-03-12T13:33:48.172Z,100032.44
2023-03-12T13:36:23.125Z,100023.25
2023-03-12T13:39:17.347Z,100020.56
2023-03-12T13:41:52.124Z,100015.75
2023-03-12T13:44:28.887Z,100023.47
2023-03-12T13:47:04.814Z,100026.72
2023-03-12T13:49:40.748Z,100028.38
2023-03-12T13:52:27.693Z,100023.06
2023-03-12T13:55:16.198Z,100024.31
2023-03-12T13:57:49.610Z,100022.66
2023-03-12T14:00:28.674Z,100018.00
2023-03-12T14:03:01.065Z,100015.41
2023-03-12T14:05:29.066Z,100022.94
2023-03-12T14:08:17.603Z,100021.41
2023-03-12T14:11:17.953Z,100019.06
2023-03-12T14:13:53.597Z,100010.13
2023-03-12T14:16:30.776Z,100007.38
2023-03-12T14:18:57.903Z,100011.31
2023-03-12T14:21:33.285Z,100005.72
2023-03-12T14:24:00.550Z,100005.41
2023-03-12T14:26:31.512Z,100004.19
2023-03-12T14:29:41.854Z,99995.13
2023-03-12T14:32:22.678Z,99998.75
2023-03-12T14:35:11.236Z,99994.69
2023-03-12T14:37:44.858Z,99984.72
2023-03-12T14:40:26.701Z,99986.91
2023-03-12T14:42:53.392Z,99987.84
2023-03-12T14:45:23.101Z,99981.13
2023-03-12T14:47:57.816Z,99983.06
2023-03-12T14:50:30.963Z,99985.66
2023-03-12T14:53:12.354Z,99981.72
2023-03-12T14:55:38.982Z,99986.59
2023-03-12T14:58:14.539Z,99979.53
2023-03-12T15:00:43.591Z,99980.19
2023-03-12T15:03:15.835Z,99978.47
2023-03-12T15:05:50.023Z,99975.88
2023-03-12T15:08:17.603Z,99980.09
2023-03-12T15:10:50.068Z,99978.72
2023-03-12T15:13:17.220Z,99968.81
2023-03-12T15:15:47.132Z,99974.75
2023-03-12T15:18:17.571Z,99973.03
2023-03-12T15:20:45.578Z,99964.22
2023-03-12T15:23:13.687Z,99950.53
2023-03-12T15:25:42.466Z,99947.44
2023-03-12T15:28:15.225Z,99940.69
2023-03-12T15:30:43.568Z,99947.53
2023-03-12T15:33:10.185Z,99932.28
2023-03-12T15:35:40.051Z,99932.53
2023-03-12T15:38:14.990Z,99950.31
2023-03-12T15:40:42.047Z,99940.25
2023-03-12T15:43:19.449Z,99939.66
2023-03-12T15:45:46.732Z,99946.41
2023-03-12T15:48:26.838Z,99935.47
2023-03-12T15:50:53.577Z,99944.66
2023-03-12T15:53:20.214Z,99945.25
2023-03-12T15:56:05.754Z,99945.63
2023-03-12T15:58:34.993Z,99945.84
2023-03-12T16:01:16.374Z,99954.09
2023-03-12T16:03:45.489Z,99955.75
2023-03-12T16:06:17.517Z,99940.03
2023-03-12T16:08:52.932Z,99942.06
2023-03-12T16:11:22.670Z,99932.94
2023-03-12T16:13:52.007Z,99939.00
2023-03-12T16:16:18.662Z,99951.22
2023-03-12T16:18:45.312Z,99955.16
2023-03-12T16:21:14.518Z,99950.16
2023-03-12T16:23:41.126Z,99945.72
2023-03-12T16:26:07.833Z,99948.53
2023-03-12T16:28:40.155Z,99953.75
2023-03-12T16:31:16.553Z,99959.78
2023-03-12T16:33:54.658Z,99943.56
2023-03-12T16:36:24.044Z,99944.50
2023-03-12T16:38:57.947Z,99949.59
2023-03-12T16:41:30.542Z,99955.56
2023-03-12T16:44:01.910Z,99975.09
2023-03-12T16:46:36.194Z,99971.22
2023-03-12T16:49:04.183Z,99970.06
2023-03-12T16:51:30.819Z,99965.09
2023-03-12T16:54:10.856Z,99969.34
2023-03-12T16:56:50.973Z,99972.19
2023-03-12T16:59:33.287Z,99969.66
2023-03-12T17:01:59.942Z,99962.94
2023-03-12T17:04:26.563Z,99969.19
2023-03-12T17:06:53.103Z,99969.63
2023-03-12T17:09:19.905Z,99964.16
2023-03-12T17:11:49.874Z,99961.34
2023-03-12T17:14:22.322Z,99960.97
2023-03-12T17:16:49.206Z,99976.38
2023-03-12T17:19:16.032Z,99969.75
2023-03-12T17:21:43.395Z,99957.03
2023-03-12T17:24:14.088Z,99971.91
2023-03-12T17:26:42.162Z,99977.13
2023-03-12T17:29:08.852Z,99990.66
2023-03-12T17:31:37.513Z,99981.19
2023-03-12T17:34:04.605Z,99993.50
2023-03-12T17:36:31.217Z,99993.34
2023-03-12T17:38:57.874Z,99982.34
2023-03-12T17:41:26.759Z,99995.91
2023-03-12T17:43:54.859Z,99994.91
2023-03-12T17:46:21.862Z,100000.44
2023-03-12T17:48:48.515Z,99992.63
2023-03-12T17:51:15.023Z,99992.84
2023-03-12T17:53:41.871Z,100000.31
2023-03-12T17:56:09.174Z,100009.59
2023-03-12T17:58:35.980Z,100009.41
2023-03-12T18:01:02.653Z,100011.09
2023-03-12T18:03:29.404Z,100008.16
2023-03-12T18:05:56.139Z,100017.41
2023-03-12T18:08:22.736Z,100026.19
2023-03-12T18:10:49.409Z,100024.78
2023-03-12T18:13:16.248Z,100023.41
2023-03-12T18:15:42.834Z,100031.09
2023-03-12T18:18:09.555Z,100027.22
2023-03-12T18:20:39.717Z,100031.41
2023-03-12T18:23:07.043Z,100029.72
2023-03-12T18:25:33.689Z,100034.16
2023-03-12T18:28:00.294Z,100026.31
2023-03-12T18:30:28.160Z,100023.66
2023-03-12T18:32:54.919Z,100019.78
2023-03-12T18:35:22.738Z,100026.16
2023-03-12T18:37:51.829Z,100026.03
2023-03-12T18:40:18.667Z,100019.72
2023-03-12T18:42:45.276Z,100033.41
2023-03-12T18:45:12.503Z,100034.19
2023-03-12T18:47:39.515Z,100025.25
2023-03-12T18:50:10.167Z,100033.81
2023-03-12T18:52:36.836Z,100033.91
2023-03-12T18:55:04.447Z,100028.91
2023-03-12T18:57:31.804Z,100024.41
2023-03-12T18:59:59.338Z,100020.84
2023-03-12T19:02:26.194Z,100030.66
2023-03-12T19:04:55.858Z,100032.28
2023-03-12T19:07:23.147Z,100043.16
2023-03-12T19:09:50.244Z,100045.59
2023-03-12T19:12:16.791Z,100055.69
2023-03-12T19:14:43.379Z,100051.13
2023-03-12T19:17:09.949Z,100061.00
2023-03-12T19:19:36.534Z,100053.13
2023-03-12T19:22:04.548Z,100044.53
2023-03-12T19:24:31.711Z,100051.13
2023-03-12T19:26:58.515Z,100051.13
2023-03-12T19:29:25.238Z,100040.72
2023-03-12T19:31:51.878Z,100038.38
2023-03-12T19:34:20.902Z,100048.19
2023-03-12T19:36:47.464Z,100048.09
2023-03-12T19:39:21.133Z,100043.97
2023-03-12T19:41:48.308Z,100041.13
2023-03-12T19:44:14.938Z,100034.38
2023-03-12T19:46:43.154Z,100037.78
2023-03-12T19:49:09.790Z,100035.06
2023-03-12T19:51:36.347Z,100040.16
2023-03-12T19:54:02.958Z,100027.38
2023-03-12T19:56:29.546Z,100031.38
2023-03-12T19:58:56.188Z,100028.72
2023-03-12T20:01:23.013Z,100024.16
2023-03-12T20:03:49.652Z,100028.91
2023-03-12T20:06:19.157Z,100039.41
2023-03-12T20:08:45.730Z,100032.41
2023-03-12T20:11:12.508Z,100029.22
2023-03-12T20:13:39.277Z,100026.97
2023-03-12T20:16:07.576Z,100025.13
2023-03-12T20:18:34.516Z,100021.28
2023-03-12T20:21:01.184Z,100014.81
2023-03-12T20:23:27.751Z,100018.78
2023-03-12T20:25:54.406Z,100019.81
2023-03-12T20:28:20.998Z,100021.25
2023-03-12T20:30:48.521Z,100004.72
2023-03-12T20:33:15.207Z,100009.94
2023-03-12T20:35:41.797Z,100002.03
2023-03-12T20:38:08.563Z,100002.34
2023-03-12T20:40:35.290Z,99992.75
2023-03-12T20:43:05.120Z,99999.75
2023-03-12T20:45:33.381Z,99996.00
2023-03-12T20:48:00.750Z,100003.53
2023-03-12T20:50:28.268Z,100002.25
2023-03-12T20:52:54.917Z,100011.75
2023-03-12T20:55:21.835Z,100008.03
2023-03-12T20:57:48.746Z,100002.44
2023-03-12T21:00:16.075Z,99994.06
2023-03-12T21:02:42.635Z,99998.84
2023-03-12T21:05:11.416Z,99990.88
2023-03-12T21:07:38.070Z,99998.69
2023-03-12T21:10:05.229Z,99991.84
2023-03-12T21:12:31.783Z,99994.41
2023-03-12T21:15:06.260Z,99992.75
2023-03-12T21:17:33.979Z,99990.25
2023-03-12T21:20:01.729Z,100000.09
2023-03-12T21:22:30.484Z,99994.03
2023-03-12T21:24:57.663Z,99996.44
2023-03-12T21:27:24.450Z,99999.50
2023-03-12T21:29:52.683Z,100001.03
2023-03-12T21:32:20.808Z,99991.88
2023-03-12T21:34:48.030Z,99992.47
2023-03-12T21:37:15.773Z,99983.44
2023-03-12T21:39:43.089Z,99986.19
2023-03-12T21:42:09.669Z,99986.06
2023-03-12T21:44:37.105Z,99979.09
2023-03-12T21:47:06.634Z,99973.06
2023-03-12T21:49:34.696Z,99964.66
2023-03-12T21:52:02.315Z,99959.56
2023-03-12T21:54:38.236Z,99952.38
2023-03-12T21:57:05.216Z,99957.53
2023-03-12T21:59:32.408Z,99943.38
2023-03-12T22:01:59.443Z,99956.22
2023-03-12T22:04:26.192Z,99952.38
2023-03-12T22:06:52.740Z,99949.44
2023-03-12T22:09:19.376Z,99948.28
2023-03-12T22:11:45.921Z,99945.16
2023-03-12T22:14:15.517Z,99944.41
2023-03-12T22:16:42.000Z,99944.66
2023-03-12T22:19:09.177Z,99933.53
2023-03-12T22:21:35.776Z,99932.34
2023-03-12T22:24:02.402Z,99925.19
2023-03-12T22:26:29.271Z,99917.75
2023-03-12T22:28:57.668Z,99921.22
2023-03-12T22:31:26.739Z,99921.97
2023-03-12T22:33:53.468Z,99916.41
2023-03-12T22:36:21.250Z,99919.56
2023-03-12T22:38:48.013Z,99913.72
2023-03-12T22:41:23.300Z,99925.53
2023-03-12T22:43:51.667Z,99903.09
2023-03-12T22:46:19.921Z,99904.56
2023-03-12T22:48:48.453Z,99903.09
2023-03-12T22:51:15.046Z,99901.63
2023-03-12T22:53:41.645Z,99892.50
2023-03-12T22:56:11.209Z,99888.91
2023-03-12T22:58:37.897Z,99881.28
2023-03-12T23:01:07.166Z,99884.78
2023-03-12T23:03:35.094Z,99884.00
2023-03-12T23:06:03.086Z,99883.16
2023-03-12T23:08:30.331Z,99873.19
2023-03-12T23:11:02.490Z,99873.22
2023-03-12T23:13:31.632Z,99880.97
2023-03-12T23:16:10.146Z,99875.81
2023-03-12T23:18:37.193Z,99874.81
2023-03-12T23:21:06.546Z,99870.00
2023-03-12T23:23:33.983Z,99870.97
2023-03-12T23:26:00.908Z,99868.38
2023-03-12T23:28:29.055Z,99866.19
2023-03-12T23:31:01.337Z,99841.22
2023-03-12T23:33:29.369Z,99854.44
2023-03-12T23:36:01.555Z,99850.84
2023-03-12T23:38:29.330Z,99846.50
2023-03-12T23:41:00.790Z,99847.09
2023-03-12T23:43:27.730Z,99839.09
2023-03-12T23:45:58.827Z,99852.72
2023-03-12T23:48:27.370Z,99839.66
2023-03-12T23:50:54.540Z,99836.59
2023-03-12T23:53:21.158Z,99837.78
2023-03-12T23:55:58.382Z,99830.09
2023-03-12T23:58:25.443Z,99822.91
